map of COU home
COU - Airport
Location
City:  Columbia, Missouri, United States
Name:Columbia Regional
ICAO:KCOU
IATA:COU
FAA LID:COU

Details
Type:Airport (Part 139 Class I)
Use:Public/Civil
Latitude:3849'02"N (38.817333)
Longitude:9213'05"W (-92.218027)
Datum:WGS 1984
Elevation:889 ft (271 m)
Variation:0.05W (WMM2015 magnetic declination)
-0.09 annual change
Runways:2
Longest:6501 × 150 ft (1982 × 45.5 m), paved

Time
Time Zone:UTC-6 (DST-5)
Local Time:

Weather
METAR:KCOU 140154Z 33016KT 10SM CLR 07/M02 A2980 RMK AO2 PK WND 33030/0124 SLP095 T00721017
TAF:KCOU 132322Z 1400/1424 32014G22KT P6SM SKC
FM140500 33010KT P6SM OVC035
FM141100 33007KT P6SM BKN110

Related Locations
Nearby:
Farthest:MQZ: 10889 mi / 17524 km
Margaret River [Margaret River Airport], WA, AU

Find:

   beyond  
but within

Other Information
Maps:
Delays:
NOTAMs:
Links:
Sources:

  
flag of United States
flag of Missouri
  

Airport Diagram

Airport diagram for COU

Airport diagram PDF

Sectional Chart

Flight Planning
at skyvector.com

Satellite Image

Google Maps Satellite view

 

Copyright © 2004-2017 Karl L. Swartz. All rights reserved.
The Great Circle Mapper name and logo are trademarks of the Great Circle Mapper.
All other trademarks mentioned herein belong to their respective owners.
Please see credits for attibutions and further copyright information.

  Follow gcmap on Facebook Follow gcmap on Twitter Follow gcmap on Google+ GCmap on LinkedIn

hCard Microformat

Geo Microformat